Sidney, MT

7:08 AM MST on February 13, 2016 (GMT -0700)
Miller's Subdivision | | Change Station
CLOSE
Current Station
Personal Weather Station
Location: Sidney, MT
Elevation: 1969 ft
Nearby Weather Stations

Elev 1969 ft 47.72 °N, 104.19 °W | Updated 27 seconds ago

Clear
Clear
17.2 °F
Feels Like 17 °F
N
2.2
Wind Variable Wind from East
Gusts 3.8 mph

Today
High -- | Low -- °F
--% Chance of Precip.
Yesterday
High -- | Low -- °F
Precip. -- in
Pressure 30.00 in
Visibility 10.0 miles
Clouds Clear
Windchill 17 °F
Dew Point 8 °F
Humidity 68%
Rainfall 0.00 in
Snow Depth Not available.
7:06 AM 5:15 PM
Waxing Crescent, 31% visible
METAR KSDY 131355Z 15009KT 10SM CLR M08/M11 A3000 RMK AO1
Pressure 30.00 in
Visibility 10.0 miles
Clouds Clear
Windchill 17 °F
Dew Point 8 °F
Humidity 68%
Rainfall 0.00 in
Snow Depth Not available.
7:06 AM 5:15 PM
Waxing Crescent, 31% visible
METAR KSDY 131355Z 15009KT 10SM CLR M08/M11 A3000 RMK AO1

10-Day Weather Forecast

Almanac

Astronomy

Feb. 13, 2016 Rise Set
Actual Time
Civil Twilight
Nautical Twilight
Astronomical Twilight
Moon
Length of Visible Light
Length of Day
Tomorrow will be .
, % of the Moon is Illuminated

Today's Extremes

State Highs State Lows

Community

WunderPhotos

Upload Photos

1,892,556 photos uploaded!

WunderBlog® & News

Nearby

Air Quality

  Air Quality AQ Index Pollutant
Not available.

Snow Depth

Station Depth Elevation

Earthquake Activity

City Distance Mag. Time & Date
Minimum magnitude displayed is 2.5.

Coastal Water Temperatures

Place Temperature

Stations

Nearby Weather Stations

Station Location Temp. Windchill Dew Point Humidity Wind Precip. Elev Updated Type
                   

Watches & Warnings

There are currently no watches in effect.